GW5211 Weather Reports


Display with metric or nautical units.
time (UTC)temp
F
wind
direction
speed
MPH
gust
MPH
rain 1hr
in
rain 24hr
in
rain mn
in
humidity
%
barometer
mb
20260510204504 84 301 6.0 13.0 0.00 0.00 0.00 81 1014.8
20260510204003 85 285 7.0 14.0 0.00 0.00 0.00 80 1014.7
20260510203504 85 260 5.0 9.0 0.00 0.00 0.00 79 1014.4
20260510203004 85 294 6.0 10.0 0.00 0.00 0.00 78 1014.5
20260510202503 85 285 5.0 14.0 0.00 0.00 0.00 79 1014.7
20260510201504 86 278 5.0 9.0 0.00 0.00 0.00 76 1014.4
20260510201004 85 280 3.0 9.0 0.00 0.00 0.00 77 1014.4
20260510200504 86 253 5.0 8.0 0.00 0.00 0.00 77 1014.6
20260510200004 86 233 3.0 8.0 0.00 0.00 0.00 77 1014.5
20260510195004 86 286 5.0 10.0 0.00 0.00 0.00 76 1014.8
20260510194504 87 248 4.0 8.0 0.00 0.00 0.00 74 1014.8
20260510194004 87 271 5.0 10.0 0.00 0.00 0.00 74 1014.8
20260510193503 87 266 4.0 9.0 0.00 0.00 0.00 72 1014.3
20260510193005 87 231 5.0 9.0 0.00 0.00 0.00 74 1014.3
20260510192504 87 249 6.0 12.0 0.00 0.00 0.00 74 1014.7
20260510192004 87 252 5.0 9.0 0.00 0.00 0.00 71 1014.7
20260510191504 87 220 5.0 9.0 0.00 0.00 0.00 73 1014.6
20260510190504 87 242 6.0 10.0 0.00 0.00 0.00 74 1014.6
20260510190004 87 270 5.0 10.0 0.00 0.00 0.00 72 1014.7
20260510185504 88 257 5.0 10.0 0.00 0.00 0.00 71 1015.0
20260510184503 88 249 6.0 9.0 0.00 0.00 0.00 70 1014.5
20260510183004 88 253 5.0 10.0 0.00 0.00 0.00 68 1014.5
20260510182003 88 258 6.0 8.0 0.00 0.00 0.00 68 1014.9
20260510181504 89 238 5.0 10.0 0.00 0.00 0.00 65 1014.8
20260510181003 89 244 5.0 9.0 0.00 0.00 0.00 65 1014.6
20260510180504 89 270 3.0 7.0 0.00 0.00 0.00 67 1015.1
20260510180004 89 245 4.0 9.0 0.00 0.00 0.00 68 1015.2
20260510175503 90 262 3.0 8.0 0.00 0.00 0.00 64 1015.0
20260510175004 90 262 4.0 8.0 0.00 0.00 0.00 64 1014.7
20260510174503 90 258 6.0 9.0 0.00 0.00 0.00 66 1014.7
20260510174004 89 275 3.0 8.0 0.00 0.00 0.00 64 1014.5
20260510173004 89 281 4.0 10.0 0.00 0.00 0.00 66 1014.9
20260510171504 90 230 5.0 8.0 0.00 0.00 0.00 62 1014.7
20260510170504 90 272 5.0 9.0 0.00 0.00 0.00 66 1015.1
20260510170004 91 233 3.0 8.0 0.00 0.00 0.00 66 1014.6
20260510165003 90 246 4.0 8.0 0.00 0.00 0.00 62 1014.8
20260510164504 89 223 4.0 9.0 0.00 0.00 0.00 64 1014.6
20260510164003 89 191 4.0 8.0 0.00 0.00 0.00 66 1014.6
20260510163504 89 248 3.0 8.0 0.00 0.00 0.00 70 1015.6
20260510163003 90 234 2.0 6.0 0.00 0.00 0.00 67 1015.0
20260510162504 89 203 3.0 7.0 0.00 0.00 0.00 69 1014.9
20260510162004 89 228 3.0 8.0 0.00 0.00 0.00 65 1014.7
20260510161004 88 182 3.0 8.0 0.00 0.00 0.00 72 1015.1
20260510160504 88 198 6.0 10.0 0.00 0.00 0.00 71 1014.8
20260510160004 88 184 4.0 7.0 0.00 0.00 0.00 72 1014.9
20260510155504 88 225 1.0 6.0 0.00 0.00 0.00 72 1015.4
20260510155004 87 184 3.0 9.0 0.00 0.00 0.00 74 1014.6
20260510154504 87 230 4.0 9.0 0.00 0.00 0.00 74 1014.9
20260510154004 86 186 2.0 7.0 0.00 0.00 0.00 75 1015.1
20260510153004 86 142 3.0 9.0 0.00 0.00 0.00 77 1015.4
20260510152504 86 159 5.0 9.0 0.00 0.00 0.00 76 1015.2
20260510152004 86 159 2.0 8.0 0.00 0.00 0.00 78 1015.4
20260510151003 86 157 2.0 8.0 0.00 0.00 0.00 77 1014.8
20260510150503 86 189 2.0 7.0 0.00 0.00 0.00 80 1015.1
20260510150004 86 248 3.0 5.0 0.00 0.00 0.00 80 1015.2
20260510144504 87 211 2.0 8.0 0.00 0.00 0.00 73 1015.0
20260510144004 86 163 5.0 9.0 0.00 0.00 0.00 76 1014.7
20260510143504 85 119 6.0 10.0 0.00 0.00 0.00 76 1014.7
20260510143004 85 132 5.0 9.0 0.00 0.00 0.00 77 1014.5
20260510142504 84 126 4.0 10.0 0.00 0.00 0.00 77 1014.3
20260510142004 84 175 4.0 6.0 0.00 0.00 0.00 79 1015.1
20260510141503 84 177 4.0 8.0 0.00 0.00 0.00 79 1015.5
20260510141004 84 173 3.0 8.0 0.00 0.00 0.00 78 1015.4
20260510140504 85 185 5.0 8.0 0.00 0.00 0.00 79 1015.1
20260510140004 84 139 4.0 7.0 0.00 0.00 0.00 80 1014.5
20260510135504 84 140 6.0 13.0 0.00 0.00 0.00 80 1015.2
20260510135004 84 128 2.0 9.0 0.00 0.00 0.00 80 1014.4
20260510134505 83 151 3.0 8.0 0.00 0.00 0.00 80 1014.3
20260510133504 84 149 6.0 12.0 0.00 0.00 0.00 80 1014.2
20260510133004 83 158 5.0 12.0 0.00 0.00 0.00 80 1014.2
20260510132503 83 160 5.0 8.0 0.00 0.00 0.00 81 1014.2
20260510132004 82 153 5.0 9.0 0.00 0.00 0.00 82 1014.3
20260510131004 82 146 6.0 10.0 0.00 0.00 0.00 83 1014.5
20260510125504 81 166 3.0 7.0 0.00 0.00 0.00 84 1014.1
20260510125004 80 165 4.0 10.0 0.00 0.00 0.00 86 1014.2
20260510124504 80 149 3.0 8.0 0.00 0.00 0.00 87 1014.1
20260510124004 79 158 3.0 6.0 0.00 0.00 0.00 87 1014.2
20260510123504 79 152 5.0 7.0 0.00 0.00 0.00 88 1014.1
20260510123004 78 149 5.0 8.0 0.00 0.00 0.00 89 1014.2
20260510122504 78 124 3.0 6.0 0.00 0.00 0.00 91 1014.2
20260510122004 77 128 5.0 8.0 0.00 0.00 0.00 91 1014.3
20260510121504 77 134 3.0 7.0 0.00 0.00 0.00 92 1014.5
20260510121004 77 132 4.0 7.0 0.00 0.00 0.00 92 1014.5
20260510115505 77 137 5.0 7.0 0.00 0.00 0.00 92 1014.2
20260510114504 77 130 2.0 3.0 0.00 0.00 0.00 93 1014.0
20260510114004 76 127 3.0 3.0 0.00 0.00 0.00 93 1014.0
20260510113504 76 125 3.0 5.0 0.00 0.00 0.00 93 1013.9
20260510112504 76 119 2.0 5.0 0.00 0.00 0.00 93 1013.9
20260510111504 76 122 3.0 5.0 0.00 0.00 0.00 93 1013.8
20260510111004 76 128 3.0 5.0 0.00 0.00 0.00 93 1013.7
20260510110005 76 123 3.0 5.0 0.00 0.00 0.00 93 1013.5
20260510105504 76 129 3.0 5.0 0.00 0.00 0.00 93 1013.6
20260510104503 76 128 3.0 5.0 0.00 0.00 0.00 94 1013.4
20260510104004 76 128 3.0 5.0 0.00 0.00 0.00 94 1013.3
20260510103504 76 132 3.0 6.0 0.00 0.00 0.00 94 1013.1
20260510103004 76 136 2.0 3.0 0.00 0.00 0.00 93 1013.2
20260510102504 76 138 2.0 3.0 0.00 0.00 0.00 93 1013.1
20260510102003 76 122 2.0 5.0 0.00 0.00 0.00 93 1013.0
20260510101504 76 131 3.0 5.0 0.00 0.00 0.00 93 1012.9
20260510101003 76 116 2.0 3.0 0.00 0.00 0.00 93 1012.8
20260510100504 76 124 2.0 5.0 0.00 0.00 0.00 93 1012.8
20260510100004 76 123 2.0 5.0 0.00 0.00 0.00 93 1012.7
20260510095004 76 130 5.0 7.0 0.00 0.00 0.00 93 1012.5
20260510094504 76 130 6.0 8.0 0.00 0.00 0.00 94 1012.4
20260510094003 76 127 5.0 6.0 0.00 0.00 0.00 94 1012.5
20260510093503 76 136 4.0 7.0 0.00 0.00 0.00 94 1012.6
20260510093003 76 132 3.0 5.0 0.00 0.00 0.00 93 1012.5
20260510092504 76 134 3.0 5.0 0.00 0.00 0.00 93 1012.4
20260510092003 77 133 2.0 5.0 0.00 0.00 0.00 93 1012.4
20260510091503 77 136 2.0 5.0 0.00 0.00 0.00 93 1012.5
20260510091004 77 137 3.0 6.0 0.00 0.00 0.00 93 1012.4
20260510090004 77 136 3.0 6.0 0.00 0.00 0.00 92 1012.1
20260510085504 77 130 3.0 6.0 0.00 0.00 0.00 92 1012.1
20260510085004 77 134 4.0 8.0 0.00 0.00 0.00 92 1012.1
20260510084004 77 134 5.0 8.0 0.00 0.00 0.00 93 1011.9
20260510083505 77 131 5.0 8.0 0.00 0.00 0.00 93 1011.9
20260510082504 77 133 7.0 9.0 0.00 0.00 0.00 94 1011.9
20260510082004 77 131 6.0 9.0 0.00 0.00 0.00 94 1011.9
20260510081504 77 136 6.0 10.0 0.00 0.00 0.00 94 1012.0
20260510081003 77 135 7.0 10.0 0.00 0.00 0.00 94 1012.0
20260510080504 77 134 6.0 8.0 0.00 0.00 0.00 95 1012.1
20260510075504 78 129 5.0 7.0 0.00 0.00 0.00 95 1012.2
20260510074504 78 131 6.0 7.0 0.00 0.00 0.00 95 1012.2
20260510074004 78 134 4.0 6.0 0.00 0.00 0.00 95 1012.2
20260510073503 78 138 3.0 5.0 0.00 0.00 0.00 95 1012.2
20260510073004 78 128 3.0 5.0 0.00 0.00 0.00 95 1012.2
20260510072503 78 128 2.0 5.0 0.00 0.00 0.00 94 1012.2
20260510072004 78 130 3.0 6.0 0.00 0.00 0.00 94 1012.2
20260510071504 78 123 2.0 5.0 0.00 0.00 0.00 94 1012.3
20260510071003 78 130 4.0 6.0 0.00 0.00 0.00 94 1012.3
20260510070504 78 133 3.0 6.0 0.00 0.00 0.00 94 1012.4
20260510070004 78 125 2.0 3.0 0.00 0.00 0.00 94 1012.4
20260510065504 78 139 2.0 3.0 0.00 0.00 0.00 94 1012.5
20260510065003 78 142 2.0 3.0 0.00 0.00 0.00 94 1012.5
20260510063003 79 124 3.0 5.0 0.00 0.00 0.00 94 1012.7
20260510062504 79 135 3.0 6.0 0.00 0.00 0.00 94 1012.7
20260510062004 79 139 3.0 7.0 0.00 0.00 0.00 93 1012.8
20260510061504 79 136 3.0 5.0 0.00 0.00 0.00 93 1012.9
20260510061004 79 135 3.0 5.0 0.00 0.00 0.00 93 1013.0
20260510060504 79 141 2.0 3.0 0.00 0.00 0.00 92 1013.1
20260510060005 79 124 3.0 5.0 0.00 0.00 0.00 92 1013.1
20260510055004 79 154 1.0 5.0 0.00 0.00 0.00 92 1013.2
20260510054004 79 134 3.0 5.0 0.00 0.00 0.00 92 1013.3
20260510053504 80 123 2.0 3.0 0.00 0.00 0.00 91 1013.4
20260510053004 80 128 2.0 3.0 0.00 0.00 0.00 91 1013.5
20260510052503 80 137 0.0 2.0 0.00 0.00 0.00 90 1013.5
20260510052003 80 138 0.0 1.0 0.00 0.00 0.00 89 1013.5
20260510051504 80 117 1.0 3.0 0.00 0.00 0.00 89 1013.5
20260510051004 80 121 2.0 3.0 0.00 0.00 0.00 89 1013.4
20260510050504 80 118 0.0 2.0 0.00 0.00 0.00 89 1013.5
20260510050004 80 134 0.0 1.0 0.00 0.00 0.00 89 1013.5
20260510045504 80 287 0.0 1.0 0.00 0.00 0.00 89 1013.6
20260510045004 79 288 0.0 2.0 0.00 0.00 0.00 89 1013.6
20260510044503 79 184 0.0 2.0 0.00 0.00 0.00 89 1013.6
20260510044003 79 144 0.0 2.0 0.00 0.00 0.00 90 1013.6
20260510043004 79 106 0.0 0.0 0.00 0.00 0.00 90 1013.8
20260510042504 79 106 0.0 1.0 0.00 0.00 0.00 90 1013.7
20260510042004 79 156 0.0 1.0 0.00 0.00 0.00 90 1013.7
20260510041004 79 319 0.0 1.0 0.00 0.00 0.00 90 1013.7
20260510040504 79 328 0.0 2.0 0.00 0.00 0.00 90 1013.8
20260510040004 79 259 0.0 1.0 0.00 0.00 0.00 90 1013.9
20260510035504 79 301 0.0 1.0 0.00 0.00 0.00 90 1013.8
20260510035004 80 226 0.0 2.0 0.00 0.00 0.00 90 1013.7
20260510034004 80 220 1.0 2.0 0.00 0.00 0.00 90 1013.5
20260510033504 80 211 1.0 5.0 0.00 0.00 0.00 90 1013.5
20260510033004 80 177 1.0 2.0 0.00 0.00 0.00 90 1013.6
20260510032004 80 176 2.0 3.0 0.00 0.00 0.00 90 1013.5
20260510031504 80 148 1.0 3.0 0.00 0.00 0.00 89 1013.5
20260510030004 80 226 2.0 3.0 0.00 0.00 0.00 89 1013.5
20260510025504 80 205 1.0 3.0 0.00 0.00 0.00 90 1013.5
20260510025004 80 225 1.0 3.0 0.00 0.00 0.00 90 1013.5
20260510024504 80 218 1.0 2.0 0.00 0.00 0.00 90 1013.5
20260510024004 80 256 1.0 2.0 0.00 0.00 0.00 90 1013.5
20260510023504 80 248 1.0 2.0 0.00 0.00 0.00 90 1013.4
20260510023004 80 217 2.0 3.0 0.00 0.00 0.00 90 1013.3
20260510022504 80 259 1.0 3.0 0.00 0.00 0.00 90 1013.3
20260510022004 80 278 1.0 2.0 0.00 0.00 0.00 89 1013.3
20260510021504 80 287 1.0 5.0 0.00 0.00 0.00 89 1013.2
20260510021003 80 279 2.0 3.0 0.00 0.00 0.00 89 1013.3
20260510020504 80 310 1.0 5.0 0.00 0.00 0.00 89 1013.3
20260510020004 80 266 2.0 5.0 0.00 0.00 0.00 89 1013.3
20260510015503 80 281 2.0 5.0 0.00 0.00 0.00 89 1013.3
20260510015004 80 279 1.0 6.0 0.00 0.00 0.00 89 1013.3
20260510014504 80 305 2.0 6.0 0.00 0.00 0.00 89 1013.3
20260510013504 80 254 0.0 5.0 0.00 0.00 0.00 89 1013.2
20260510013004 80 275 3.0 5.0 0.00 0.00 0.00 89 1013.1
20260510012504 80 279 2.0 5.0 0.00 0.00 0.00 89 1013.2
20260510012004 80 234 1.0 3.0 0.00 0.00 0.00 89 1013.1
20260510011003 80 167 0.0 3.0 0.00 0.00 0.00 88 1012.9
20260510010504 80 268 2.0 6.0 0.00 0.00 0.00 88 1012.7
20260510010004 80 286 2.0 6.0 0.00 0.00 0.00 88 1012.6
20260510005504 80 303 1.0 6.0 0.00 0.00 0.00 88 1012.6
20260510005004 80 296 1.0 5.0 0.00 0.00 0.00 88 1012.6
20260510004503 80 290 2.0 3.0 0.00 0.00 0.00 88 1012.6
20260510004004 81 260 3.0 6.0 0.00 0.00 0.00 87 1012.5
20260510003004 81 284 2.0 6.0 0.00 0.00 0.00 87 1012.5
20260510002004 81 268 3.0 7.0 0.00 0.00 0.00 86 1012.4
20260510001004 81 244 3.0 7.0 0.00 0.00 0.00 85 1012.2
20260510000504 81 262 3.0 7.0 0.00 0.00 0.00 85 1012.1
20260509235003 81 272 3.0 6.0 0.00 0.00 0.00 85 1012.0
20260509234004 81 208 4.0 9.0 0.00 0.00 0.00 85 1011.8
20260509233503 81 230 3.0 6.0 0.00 0.00 0.00 84 1011.9
20260509233004 81 266 3.0 9.0 0.00 0.00 0.00 84 1012.0
20260509232504 81 224 5.0 9.0 0.00 0.00 0.00 84 1012.0
20260509231504 82 256 5.0 8.0 0.00 0.00 0.00 83 1012.0
20260509231004 82 225 3.0 9.0 0.00 0.00 0.00 83 1012.0
20260509230504 82 241 5.0 9.0 0.00 0.00 0.00 83 1011.9
20260509230004 82 207 5.0 9.0 0.00 0.00 0.00 82 1011.8
20260509225503 82 228 5.0 10.0 0.00 0.00 0.00 81 1011.8
20260509224504 82 236 3.0 9.0 0.00 0.00 0.00 81 1011.8
20260509224004 83 227 5.0 9.0 0.00 0.00 0.00 80 1011.8
20260509223504 83 246 4.0 8.0 0.00 0.00 0.00 78 1011.8
20260509223005 83 223 5.0 9.0 0.00 0.00 0.00 77 1011.8
20260509222004 84 223 5.0 8.0 0.00 0.00 0.00 75 1011.8
20260509221504 84 259 5.0 9.0 0.00 0.00 0.00 73 1011.8
20260509221004 85 212 3.0 9.0 0.00 0.00 0.00 71 1011.7
20260509220504 85 219 3.0 8.0 0.00 0.00 0.00 69 1011.8
20260509220004 86 258 4.0 8.0 0.00 0.00 0.00 69 1011.5
20260509215503 86 244 5.0 12.0 0.00 0.00 0.00 68 1011.0
20260509215004 86 217 6.0 13.0 0.00 0.00 0.00 65 1011.1
20260509214504 86 250 6.0 12.0 0.00 0.00 0.00 63 1011.0
20260509214003 87 221 5.0 10.0 0.00 0.00 0.00 63 1011.0
20260509213504 87 238 3.0 7.0 0.00 0.00 0.00 60 1010.8
20260509213004 87 258 6.0 9.0 0.00 0.00 0.00 61 1011.0
20260509212504 87 255 5.0 9.0 0.00 0.00 0.00 61 1010.7
20260509212004 87 176 6.0 12.0 0.00 0.00 0.00 58 1011.1
20260509211504 87 247 7.0 12.0 0.00 0.00 0.00 56 1010.9
20260509211003 87 242 5.0 10.0 0.00 0.00 0.00 55 1010.8
20260509210504 87 233 6.0 10.0 0.00 0.00 0.00 53 1010.8
20260509210004 87 225 5.0 9.0 0.00 0.00 0.00 52 1011.0
20260509205504 88 258 6.0 10.0 0.00 0.00 0.00 53 1011.0
20260509205005 88 257 5.0 10.0 0.00 0.00 0.00 50 1011.0